createdAt,value
2019-01-25T00:02:01.927Z,36.23
2019-01-25T00:07:04.389Z,38.07
2019-01-25T00:12:06.877Z,37.87
2019-01-25T00:17:09.405Z,37.30
2019-01-25T00:22:11.789Z,37.97
2019-01-25T00:27:14.250Z,37.37
2019-01-25T00:32:16.711Z,37.87
2019-01-25T00:37:19.178Z,37.73
2019-01-25T00:42:21.636Z,38.47
2019-01-25T00:47:24.097Z,39.00
2019-01-25T00:52:26.556Z,38.73
2019-01-25T00:57:29.014Z,41.67
2019-01-25T01:02:31.476Z,39.80
2019-01-25T01:07:33.930Z,37.07
2019-01-25T01:12:36.375Z,35.97
2019-01-25T01:17:38.838Z,37.30
2019-01-25T01:22:41.321Z,38.07
2019-01-25T01:27:43.870Z,38.13
2019-01-25T01:32:46.343Z,37.53
2019-01-25T01:37:48.801Z,37.33
2019-01-25T01:42:51.253Z,38.10
2019-01-25T01:47:53.709Z,39.33
2019-01-25T01:52:56.186Z,36.90
2019-01-25T01:57:58.648Z,39.57
2019-01-25T02:03:01.114Z,37.60
2019-01-25T02:08:03.576Z,38.63
2019-01-25T02:13:06.055Z,36.20
2019-01-25T02:18:08.512Z,37.67
2019-01-25T02:23:10.979Z,36.67
2019-01-25T02:28:13.444Z,37.83
2019-01-25T02:33:15.906Z,37.87
2019-01-25T02:38:18.368Z,39.23
2019-01-25T02:43:20.837Z,38.83
2019-01-25T02:48:23.302Z,36.70
2019-01-25T02:53:25.741Z,39.40
2019-01-25T02:58:28.190Z,37.77
2019-01-25T03:03:30.696Z,38.83
2019-01-25T03:08:33.149Z,38.47
2019-01-25T03:13:35.617Z,40.23
2019-01-25T03:18:38.071Z,39.40
2019-01-25T03:23:40.531Z,40.93
2019-01-25T03:28:42.990Z,40.40
2019-01-25T03:33:45.448Z,39.30
2019-01-25T03:38:47.913Z,40.47
2019-01-25T03:43:50.363Z,41.33
2019-01-25T03:48:52.830Z,40.03
2019-01-25T03:53:55.311Z,42.50
2019-01-25T03:58:57.772Z,42.97
2019-01-25T04:04:00.243Z,43.20
2019-01-25T04:09:02.707Z,44.77
2019-01-25T04:14:05.167Z,43.97
2019-01-25T04:19:07.639Z,43.90
2019-01-25T04:24:10.105Z,44.50
2019-01-25T04:29:12.563Z,41.10
2019-01-25T04:34:15.024Z,42.80
2019-01-25T04:39:17.482Z,43.93
2019-01-25T04:44:19.953Z,46.80
2019-01-25T04:49:22.414Z,46.03
2019-01-25T04:54:24.895Z,43.00
2019-01-25T04:59:27.360Z,44.93
2019-01-25T05:04:29.846Z,45.40
2019-01-25T05:09:32.317Z,47.97
2019-01-25T05:14:34.827Z,44.93
2019-01-25T05:19:40.248Z,48.00
2019-01-25T05:24:42.719Z,48.37
2019-01-25T05:29:48.144Z,45.20
2019-01-25T05:34:50.612Z,45.63
2019-01-25T05:39:53.084Z,48.87
2019-01-25T05:44:55.567Z,49.93
2019-01-25T05:49:58.027Z,48.50
2019-01-25T05:55:00.526Z,44.93
2019-01-25T06:00:03.001Z,49.03
2019-01-25T06:05:05.490Z,48.77
2019-01-25T06:10:07.980Z,49.53
2019-01-25T06:15:10.457Z,48.87
2019-01-25T06:20:12.915Z,50.00
2019-01-25T06:25:15.386Z,49.10
2019-01-25T06:30:17.858Z,51.30
2019-01-25T06:35:20.320Z,51.00
2019-01-25T06:40:22.794Z,48.33
2019-01-25T06:45:25.264Z,50.80
2019-01-25T06:50:27.716Z,45.70
2019-01-25T06:55:30.198Z,47.17
2019-01-25T07:00:50.818Z,48.13
2019-01-25T07:05:53.370Z,46.57
2019-01-25T07:10:55.841Z,47.40
2019-01-25T07:15:58.302Z,47.17
2019-01-25T07:21:00.786Z,48.70
2019-01-25T07:26:03.460Z,49.03
2019-01-25T07:31:05.951Z,47.50
2019-01-25T07:36:08.416Z,49.37
2019-01-25T07:41:10.905Z,45.73
2019-01-25T07:46:13.428Z,46.73
2019-01-25T07:51:15.880Z,47.00
2019-01-25T07:56:18.344Z,46.37
2019-01-25T08:01:20.801Z,46.33
2019-01-25T08:06:23.239Z,47.57
2019-01-25T08:11:25.705Z,44.93
2019-01-25T08:16:28.180Z,44.83
2019-01-25T08:21:30.624Z,44.50
2019-01-25T08:26:33.101Z,47.70
2019-01-25T08:31:35.553Z,44.60
2019-01-25T08:36:38.196Z,44.83
2019-01-25T08:41:40.512Z,44.47
2019-01-25T08:46:43.055Z,44.17
2019-01-25T08:51:45.518Z,45.37
2019-01-25T08:56:47.999Z,42.10
2019-01-25T09:01:50.463Z,40.50
2019-01-25T09:06:52.930Z,38.60
2019-01-25T09:11:55.394Z,37.83
2019-01-25T09:16:57.856Z,39.63
2019-01-25T09:22:00.349Z,38.87
2019-01-25T09:27:02.801Z,39.57
2019-01-25T09:32:05.283Z,41.17
2019-01-25T09:37:07.790Z,39.97
2019-01-25T09:42:10.261Z,38.23
2019-01-25T09:47:12.728Z,43.60
2019-01-25T09:52:15.220Z,37.67
2019-01-25T09:57:17.702Z,40.47
2019-01-25T10:02:20.190Z,38.07
2019-01-25T10:07:22.718Z,38.07
2019-01-25T10:12:25.208Z,39.00
2019-01-25T10:17:27.749Z,37.67
2019-01-25T10:22:30.244Z,38.97
2019-01-25T10:27:32.707Z,40.90
2019-01-25T10:32:35.174Z,40.40
2019-01-25T10:37:37.623Z,39.83
2019-01-25T10:42:45.496Z,41.50
2019-01-25T10:47:42.557Z,39.27
2019-01-25T10:52:45.015Z,38.90
2019-01-25T10:57:47.495Z,41.13
2019-01-25T11:02:57.633Z,42.33
2019-01-25T11:07:52.428Z,40.93
2019-01-25T11:13:00.731Z,39.73
2019-01-25T11:17:57.362Z,38.33
2019-01-25T11:22:59.813Z,39.57
2019-01-25T11:28:02.277Z,38.97
2019-01-25T11:33:04.772Z,40.53
2019-01-25T11:38:07.244Z,39.90
2019-01-25T11:43:09.723Z,41.13
2019-01-25T11:48:12.190Z,43.03
2019-01-25T11:53:14.660Z,39.33
2019-01-25T11:58:17.131Z,40.93
2019-01-25T12:03:19.609Z,41.03
2019-01-25T12:08:22.098Z,41.57
2019-01-25T12:13:24.562Z,41.10
2019-01-25T12:18:27.072Z,41.87
2019-01-25T12:23:29.504Z,39.77
2019-01-25T12:28:31.956Z,41.20
2019-01-25T12:33:34.404Z,40.17
2019-01-25T12:38:36.864Z,40.43
2019-01-25T12:43:39.321Z,44.20
2019-01-25T12:48:41.788Z,42.33
2019-01-25T12:53:44.273Z,46.53
2019-01-25T12:58:46.771Z,40.97
2019-01-25T13:03:49.238Z,41.83
2019-01-25T13:08:51.725Z,44.43
2019-01-25T13:13:54.173Z,39.87
2019-01-25T13:18:56.646Z,42.07
2019-01-25T13:23:59.125Z,41.70
2019-01-25T13:29:01.592Z,42.83
2019-01-25T13:34:04.095Z,39.70
2019-01-25T13:39:06.528Z,41.07
2019-01-25T13:44:08.983Z,42.00
2019-01-25T13:49:11.469Z,40.13
2019-01-25T13:54:13.934Z,38.93
2019-01-25T13:59:16.426Z,41.57
2019-01-25T14:04:18.877Z,40.93
2019-01-25T14:09:21.403Z,41.10
2019-01-25T14:14:23.876Z,38.83
2019-01-25T14:19:26.353Z,40.23
2019-01-25T14:24:28.876Z,39.03
2019-01-25T14:29:31.352Z,38.50
2019-01-25T14:34:33.827Z,39.67
2019-01-25T14:39:36.274Z,39.40
2019-01-25T14:44:38.747Z,36.57
2019-01-25T14:49:41.202Z,38.53
2019-01-25T14:54:43.675Z,42.10
2019-01-25T14:59:46.226Z,38.90
2019-01-25T15:04:48.696Z,39.20
2019-01-25T15:09:51.172Z,40.80
2019-01-25T15:14:53.709Z,39.13
2019-01-25T15:19:56.169Z,36.70
2019-01-25T15:24:58.629Z,37.90
2019-01-25T15:30:01.104Z,38.13
2019-01-25T15:35:03.609Z,38.03
2019-01-25T15:40:06.091Z,39.77
2019-01-25T15:45:11.513Z,39.27
2019-01-25T15:50:22.958Z,39.47
2019-01-25T15:55:25.413Z,37.67
2019-01-25T16:00:27.904Z,38.80
2019-01-25T16:05:30.366Z,39.07
2019-01-25T16:10:32.833Z,36.97
2019-01-25T16:15:35.303Z,34.60
2019-01-25T16:20:37.779Z,36.73
2019-01-25T16:25:40.259Z,33.40
2019-01-25T16:30:42.791Z,36.67
2019-01-25T16:35:45.262Z,34.57
2019-01-25T16:40:47.862Z,33.57
2019-01-25T16:45:50.354Z,33.13
2019-01-25T16:50:52.855Z,33.90
2019-01-25T16:55:55.326Z,32.47
2019-01-25T17:00:57.835Z,32.67
2019-01-25T17:06:00.312Z,32.70
2019-01-25T17:11:02.806Z,32.90
2019-01-25T17:16:05.275Z,33.27
2019-01-25T17:21:07.778Z,32.47
2019-01-25T17:26:10.300Z,31.67
2019-01-25T17:31:12.836Z,32.27
2019-01-25T17:36:15.326Z,30.03
2019-01-25T17:41:17.865Z,29.73
2019-01-25T17:46:20.351Z,31.63
2019-01-25T17:51:22.921Z,31.23
2019-01-25T17:56:25.401Z,30.17
2019-01-25T18:01:27.884Z,30.70
2019-01-25T18:06:30.394Z,30.80
2019-01-25T18:11:32.865Z,44.07
2019-01-25T18:16:35.332Z,35.50
2019-01-25T18:21:37.785Z,31.50
2019-01-25T18:26:40.254Z,31.43
2019-01-25T18:31:43.057Z,31.30
2019-01-25T18:36:45.533Z,32.60
2019-01-25T18:41:48.019Z,31.50
2019-01-25T18:46:50.503Z,31.43
2019-01-25T18:51:53.001Z,29.90
2019-01-25T18:56:55.476Z,36.87
2019-01-25T19:01:57.978Z,33.53
2019-01-25T19:07:00.438Z,31.00
2019-01-25T19:12:02.920Z,28.07
2019-01-25T19:17:05.381Z,31.30
2019-01-25T19:22:07.878Z,29.20
2019-01-25T19:27:12.109Z,28.27
2019-01-25T19:32:12.811Z,29.77
2019-01-25T19:37:15.306Z,30.27
2019-01-25T19:42:19.017Z,27.17
2019-01-25T19:47:21.498Z,28.20
2019-01-25T19:52:23.978Z,27.07
2019-01-25T19:57:26.467Z,28.13
2019-01-25T20:02:28.939Z,28.53
2019-01-25T20:07:31.402Z,28.53
2019-01-25T20:12:33.887Z,25.17
2019-01-25T20:17:36.379Z,24.50
2019-01-25T20:22:38.875Z,27.33
2019-01-25T20:27:41.315Z,33.37
2019-01-25T20:32:43.780Z,24.07
2019-01-25T20:37:46.259Z,22.70
2019-01-25T20:42:48.718Z,22.93
2019-01-25T20:47:51.199Z,22.00
2019-01-25T20:52:53.654Z,22.10
2019-01-25T20:57:56.125Z,22.30
2019-01-25T21:02:58.594Z,22.27
2019-01-25T21:08:01.044Z,22.57
2019-01-25T21:13:05.308Z,25.27
2019-01-25T21:18:05.975Z,23.73
2019-01-25T21:23:08.480Z,24.30
2019-01-25T21:28:10.987Z,24.63
2019-01-25T21:33:13.804Z,26.67
2019-01-25T21:38:16.270Z,27.33
2019-01-25T21:43:18.750Z,27.23
2019-01-25T21:48:21.232Z,25.17
2019-01-25T21:53:23.731Z,24.20
2019-01-25T21:58:26.220Z,25.23
2019-01-25T22:03:28.676Z,21.47
2019-01-25T22:08:31.141Z,22.10
2019-01-25T22:13:33.834Z,21.77
2019-01-25T22:18:36.295Z,20.93
2019-01-25T22:23:38.799Z,20.03
2019-01-25T22:28:41.271Z,20.20
2019-01-25T22:33:43.745Z,19.07
2019-01-25T22:38:46.394Z,18.23
2019-01-25T22:43:48.906Z,20.20
2019-01-25T22:48:51.372Z,17.67
2019-01-25T22:53:53.928Z,18.07
2019-01-25T22:58:56.369Z,16.03
2019-01-25T23:04:04.842Z,16.93
2019-01-25T23:09:16.359Z,15.50
2019-01-25T23:14:18.845Z,16.60
2019-01-25T23:19:21.294Z,17.70
2019-01-25T23:24:23.750Z,21.50
2019-01-25T23:29:26.211Z,23.03
2019-01-25T23:34:28.705Z,21.77
2019-01-25T23:39:31.201Z,22.63
2019-01-25T23:44:33.691Z,23.80
2019-01-25T23:49:36.163Z,24.07
2019-01-25T23:54:38.624Z,23.20
2019-01-25T23:59:41.095Z,24.87
